Time;durP1;ratioP1;P1;durP2;ratioP2;P2;SDS_P1;SDS_P2;PMS_P1;PMS_P2;Temp;Humidity;BMP_temperature;BMP_pressure;BME280_temperature;BME280_humidity;BME280_pressure;Samples;Min_cycle;Max_cycle;Signal;HPM_P1;HPM_P2
2023/12/03 00:01:14;;;;;;;17.40;9.30;;;;;;;;;;5144009;27;20437;-77
2023/12/03 00:03:42;;;;;;;20.97;11.67;;;;;;;;;;5144695;27;20470;-78
2023/12/03 00:06:10;;;;;;;20.13;11.87;;;;;;;;;;5142972;27;20790;-77
2023/12/03 00:08:37;;;;;;;20.67;10.93;;;;;;;;;;5145008;27;20476;-80
2023/12/03 00:11:07;;;;;;;19.57;11.30;;;;;;;;;;5140710;27;20483;-80
2023/12/03 00:13:34;;;;;;;16.00;10.50;;;;;;;;;;5142294;27;20456;-79
2023/12/03 00:16:02;;;;;;;18.13;11.57;;;;;;;;;;5141560;28;20459;-78
2023/12/03 00:18:30;;;;;;;20.47;11.13;;;;;;;;;;5141905;28;20452;-78
2023/12/03 00:20:57;;;;;;;22.17;12.10;;;;;;;;;;5143652;27;20553;-79
2023/12/03 00:23:25;;;;;;;20.87;12.77;;;;;;;;;;5144618;27;20452;-78
2023/12/03 00:25:53;;;;;;;20.47;13.03;;;;;;;;;;5144466;28;20457;-78
2023/12/03 00:28:25;;;;;;;18.90;12.73;;;;;;;;;;5147580;27;20581;-78
2023/12/03 00:30:52;;;;;;;22.27;12.70;;;;;;;;;;5144281;27;20524;-79
2023/12/03 00:33:20;;;;;;;18.73;10.40;;;;;;;;;;5147160;27;20477;-79
2023/12/03 00:35:48;;;;;;;18.80;10.60;;;;;;;;;;5144770;27;20452;-80
2023/12/03 00:38:16;;;;;;;17.63;11.37;;;;;;;;;;5145740;27;20460;-79
2023/12/03 00:40:43;;;;;;;21.77;11.00;;;;;;;;;;5146080;27;20488;-77
2023/12/03 00:43:11;;;;;;;18.37;10.03;;;;;;;;;;5144417;27;20440;-79
2023/12/03 00:45:40;;;;;;;23.73;13.40;;;;;;;;;;5143787;27;20478;-80
2023/12/03 00:48:08;;;;;;;18.17;11.13;;;;;;;;;;5144650;27;20544;-80
2023/12/03 00:50:35;;;;;;;21.90;14.20;;;;;;;;;;5146824;27;20468;-79
2023/12/03 00:53:03;;;;;;;21.80;13.47;;;;;;;;;;5146332;27;20562;-79
2023/12/03 00:55:31;;;;;;;19.00;10.80;;;;;;;;;;5146851;27;20805;-79
2023/12/03 00:57:58;;;;;;;21.70;12.43;;;;;;;;;;5146845;27;20436;-77
2023/12/03 01:00:26;;;;;;;19.70;11.33;;;;;;;;;;5150882;27;20486;-79
2023/12/03 01:02:55;;;;;;;18.07;10.50;;;;;;;;;;5148955;27;20460;-80
2023/12/03 01:05:23;;;;;;;19.63;10.33;;;;;;;;;;5148745;27;21018;-79
2023/12/03 01:07:51;;;;;;;19.30;10.93;;;;;;;;;;5145070;27;20456;-78
2023/12/03 01:10:20;;;;;;;19.87;11.70;;;;;;;;;;5145398;27;20853;-80
2023/12/03 01:12:47;;;;;;;21.47;11.90;;;;;;;;;;5143580;27;20491;-79
2023/12/03 01:15:15;;;;;;;20.00;12.37;;;;;;;;;;5144711;27;20460;-79
2023/12/03 01:17:42;;;;;;;23.77;11.13;;;;;;;;;;5143415;27;20848;-78
2023/12/03 01:20:14;;;;;;;22.60;13.00;;;;;;;;;;5145302;27;20433;-80
2023/12/03 01:22:42;;;;;;;24.27;12.23;;;;;;;;;;5148654;27;20444;-79
2023/12/03 01:25:11;;;;;;;20.33;11.70;;;;;;;;;;5145152;27;20478;-79
2023/12/03 01:27:38;;;;;;;24.00;12.77;;;;;;;;;;5149273;27;20871;-79
2023/12/03 01:30:08;;;;;;;21.27;13.30;;;;;;;;;;5150513;27;20499;-79
2023/12/03 01:32:36;;;;;;;20.30;12.03;;;;;;;;;;5151557;27;20452;-79
2023/12/03 01:35:04;;;;;;;20.77;12.20;;;;;;;;;;5151518;27;20500;-78
2023/12/03 01:37:33;;;;;;;19.47;11.20;;;;;;;;;;5149171;27;20522;-79
2023/12/03 01:40:05;;;;;;;19.20;11.93;;;;;;;;;;5150010;27;20449;-79
2023/12/03 01:42:35;;;;;;;25.43;13.20;;;;;;;;;;5149258;27;20455;-79
2023/12/03 01:45:03;;;;;;;24.47;11.77;;;;;;;;;;5149648;27;20491;-79
2023/12/03 01:47:31;;;;;;;22.87;11.70;;;;;;;;;;5149221;27;20528;-79
2023/12/03 01:50:07;;;;;;;19.70;10.70;;;;;;;;;;5148682;27;20480;-79
2023/12/03 01:52:37;;;;;;;22.37;12.80;;;;;;;;;;5147459;27;20742;-78
2023/12/03 01:55:05;;;;;;;22.43;12.60;;;;;;;;;;5148258;27;20470;-78
2023/12/03 01:57:33;;;;;;;21.60;12.93;;;;;;;;;;5147066;27;20452;-78
2023/12/03 02:00:05;;;;;;;21.03;11.70;;;;;;;;;;5147391;27;20460;-78
2023/12/03 02:02:33;;;;;;;19.67;11.37;;;;;;;;;;5147067;27;20689;-79
2023/12/03 02:05:01;;;;;;;22.23;12.77;;;;;;;;;;5145539;27;20596;-77
2023/12/03 02:07:29;;;;;;;18.77;12.50;;;;;;;;;;5143578;27;20954;-78
2023/12/03 02:09:59;;;;;;;19.80;11.63;;;;;;;;;;5142911;27;20483;-78
2023/12/03 02:12:27;;;;;;;24.20;13.70;;;;;;;;;;5143027;27;20939;-78
2023/12/03 02:14:54;;;;;;;23.27;14.47;;;;;;;;;;5141800;27;20456;-78
2023/12/03 02:17:22;;;;;;;20.83;11.50;;;;;;;;;;5143458;27;20896;-79
2023/12/03 02:19:50;;;;;;;20.43;11.80;;;;;;;;;;5144939;27;20443;-77
2023/12/03 02:22:17;;;;;;;17.07;10.93;;;;;;;;;;5143809;27;20520;-76
2023/12/03 02:24:47;;;;;;;21.10;12.50;;;;;;;;;;5140546;27;20460;-77
2023/12/03 02:27:15;;;;;;;24.40;12.50;;;;;;;;;;5143227;27;20456;-78
2023/12/03 02:29:48;;;;;;;21.13;11.13;;;;;;;;;;5143673;27;20488;-78
2023/12/03 02:32:15;;;;;;;19.63;11.50;;;;;;;;;;5139515;27;20839;-78
2023/12/03 02:34:43;;;;;;;22.47;12.23;;;;;;;;;;5142342;27;20473;-79
2023/12/03 02:37:11;;;;;;;21.87;11.53;;;;;;;;;;5143335;27;20463;-80
2023/12/03 02:39:39;;;;;;;19.37;10.90;;;;;;;;;;5144673;27;20737;-79
2023/12/03 02:42:08;;;;;;;18.73;11.70;;;;;;;;;;5145567;27;20448;-79
2023/12/03 02:44:35;;;;;;;20.07;11.27;;;;;;;;;;5146308;27;20436;-79
2023/12/03 02:47:03;;;;;;;16.43;10.60;;;;;;;;;;5147601;27;20751;-80
2023/12/03 02:49:30;;;;;;;19.93;10.40;;;;;;;;;;5148329;27;20491;-77
2023/12/03 02:51:59;;;;;;;21.13;13.50;;;;;;;;;;5147060;27;20459;-79
2023/12/03 02:54:27;;;;;;;21.47;11.53;;;;;;;;;;5147525;27;20440;-80
2023/12/03 02:56:55;;;;;;;19.50;11.03;;;;;;;;;;5145942;27;20452;-79
2023/12/03 02:59:24;;;;;;;21.73;11.70;;;;;;;;;;5148710;27;20616;-79
2023/12/03 03:01:51;;;;;;;28.13;12.57;;;;;;;;;;5143343;27;20455;-78
2023/12/03 03:04:19;;;;;;;19.47;11.97;;;;;;;;;;5143914;27;20460;-80
2023/12/03 03:06:46;;;;;;;19.83;12.10;;;;;;;;;;5141739;27;20492;-79
2023/12/03 03:09:14;;;;;;;19.67;10.47;;;;;;;;;;5144314;27;20485;-79
2023/12/03 03:11:42;;;;;;;20.53;12.83;;;;;;;;;;5145622;27;20441;-79
2023/12/03 03:14:09;;;;;;;23.20;12.37;;;;;;;;;;5146612;27;20453;-79
2023/12/03 03:16:38;;;;;;;19.30;11.10;;;;;;;;;;5148805;27;20469;-79
2023/12/03 03:19:06;;;;;;;23.07;12.10;;;;;;;;;;5146959;27;20463;-78
2023/12/03 03:21:39;;;;;;;20.50;11.80;;;;;;;;;;5150550;27;20465;-78
2023/12/03 03:24:07;;;;;;;23.27;12.57;;;;;;;;;;5148727;27;20464;-79
2023/12/03 03:26:35;;;;;;;20.90;12.43;;;;;;;;;;5150748;27;20452;-79
2023/12/03 03:29:02;;;;;;;18.37;11.80;;;;;;;;;;5148537;27;20470;-79
2023/12/03 03:31:30;;;;;;;19.57;11.57;;;;;;;;;;5147065;27;20453;-79
2023/12/03 03:33:59;;;;;;;18.60;11.93;;;;;;;;;;5147283;27;20467;-79
2023/12/03 03:36:27;;;;;;;19.10;11.90;;;;;;;;;;5141519;27;20482;-80
2023/12/03 03:38:54;;;;;;;19.60;10.53;;;;;;;;;;5144700;27;20732;-79
2023/12/03 03:41:22;;;;;;;18.30;11.50;;;;;;;;;;5141441;27;20457;-80
2023/12/03 03:43:50;;;;;;;18.00;11.50;;;;;;;;;;5143382;27;20459;-80
2023/12/03 03:46:22;;;;;;;24.70;12.30;;;;;;;;;;5142159;27;20481;-78
2023/12/03 03:48:50;;;;;;;22.63;12.17;;;;;;;;;;5143804;27;20762;-78
2023/12/03 03:51:19;;;;;;;20.73;11.73;;;;;;;;;;5142078;27;20444;-80
2023/12/03 03:53:47;;;;;;;18.23;9.90;;;;;;;;;;5144608;27;20456;-80
2023/12/03 03:56:15;;;;;;;22.47;12.00;;;;;;;;;;5145679;27;20886;-79
2023/12/03 03:58:42;;;;;;;22.33;11.30;;;;;;;;;;5142946;27;20460;-78
2023/12/03 04:01:11;;;;;;;22.43;10.63;;;;;;;;;;5145854;27;20447;-79
2023/12/03 04:03:39;;;;;;;17.40;10.80;;;;;;;;;;5146950;28;20463;-79
2023/12/03 04:06:08;;;;;;;17.03;10.30;;;;;;;;;;5145613;27;20820;-79
2023/12/03 04:08:37;;;;;;;16.70;10.20;;;;;;;;;;5145156;28;20509;-78
2023/12/03 04:11:05;;;;;;;23.03;12.57;;;;;;;;;;5147461;28;20494;-79
2023/12/03 04:13:33;;;;;;;17.70;11.17;;;;;;;;;;5148290;28;20515;-78
2023/12/03 04:16:00;;;;;;;19.80;10.53;;;;;;;;;;5145997;28;20473;-79
2023/12/03 04:18:28;;;;;;;20.00;11.20;;;;;;;;;;5145961;27;20706;-79
2023/12/03 04:20:56;;;;;;;22.30;11.83;;;;;;;;;;5143966;28;20451;-79
2023/12/03 04:23:24;;;;;;;22.50;12.13;;;;;;;;;;5143294;28;20445;-80
2023/12/03 04:25:53;;;;;;;21.57;11.23;;;;;;;;;;5143176;27;20462;-79
2023/12/03 04:28:23;;;;;;;21.20;11.37;;;;;;;;;;5141984;28;20928;-79
2023/12/03 04:30:51;;;;;;;21.97;12.43;;;;;;;;;;5145075;28;20519;-77
2023/12/03 04:33:19;;;;;;;20.80;11.00;;;;;;;;;;5146956;27;20482;-78
2023/12/03 04:35:48;;;;;;;14.97;9.20;;;;;;;;;;5145587;28;20847;-78
2023/12/03 04:38:16;;;;;;;19.17;10.97;;;;;;;;;;5147671;27;20560;-77
2023/12/03 04:40:44;;;;;;;17.80;10.27;;;;;;;;;;5144118;28;20453;-79
2023/12/03 04:43:13;;;;;;;17.13;10.50;;;;;;;;;;5142611;27;20436;-78
2023/12/03 04:45:41;;;;;;;22.00;10.80;;;;;;;;;;5146734;28;20447;-80
2023/12/03 04:48:17;;;;;;;16.97;10.00;;;;;;;;;;5144018;28;20479;-80
2023/12/03 04:50:44;;;;;;;18.10;9.80;;;;;;;;;;5145687;27;20987;-78
2023/12/03 04:53:12;;;;;;;17.87;10.77;;;;;;;;;;5141700;28;20554;-78
2023/12/03 04:55:39;;;;;;;21.10;10.70;;;;;;;;;;5144541;27;20463;-79
2023/12/03 04:58:07;;;;;;;19.83;10.60;;;;;;;;;;5140907;28;20483;-79
2023/12/03 05:00:36;;;;;;;18.97;11.20;;;;;;;;;;5145658;27;20462;-78
2023/12/03 05:03:04;;;;;;;18.47;11.00;;;;;;;;;;5142653;28;20466;-79
2023/12/03 05:05:33;;;;;;;18.93;10.77;;;;;;;;;;5144839;28;20566;-78
2023/12/03 05:08:01;;;;;;;18.73;10.50;;;;;;;;;;5142853;28;20463;-78
2023/12/03 05:10:29;;;;;;;21.10;11.17;;;;;;;;;;5141265;27;20480;-79
2023/12/03 05:12:56;;;;;;;18.33;10.53;;;;;;;;;;5141953;27;20439;-78
2023/12/03 05:15:24;;;;;;;20.07;11.10;;;;;;;;;;5142818;27;20757;-79
2023/12/03 05:17:53;;;;;;;17.13;9.33;;;;;;;;;;5146488;27;20515;-77
2023/12/03 05:20:21;;;;;;;17.97;8.97;;;;;;;;;;5148137;27;20456;-78
2023/12/03 05:22:51;;;;;;;17.97;10.07;;;;;;;;;;5146414;27;20466;-78
2023/12/03 05:25:19;;;;;;;17.87;10.17;;;;;;;;;;5148061;27;20455;-79
2023/12/03 05:27:47;;;;;;;18.10;10.17;;;;;;;;;;5147622;27;20538;-78
2023/12/03 05:30:16;;;;;;;18.03;11.20;;;;;;;;;;5149780;27;20488;-78
2023/12/03 05:32:44;;;;;;;19.37;10.67;;;;;;;;;;5147386;27;20749;-78
2023/12/03 05:35:13;;;;;;;17.23;10.37;;;;;;;;;;5147109;27;20522;-77
2023/12/03 05:37:41;;;;;;;16.67;9.67;;;;;;;;;;5144580;27;20456;-77
2023/12/03 05:40:11;;;;;;;18.20;11.77;;;;;;;;;;5143217;27;20474;-77
2023/12/03 05:42:38;;;;;;;16.20;10.67;;;;;;;;;;5143687;27;20589;-79
2023/12/03 05:45:07;;;;;;;15.50;9.97;;;;;;;;;;5146325;27;20461;-79
2023/12/03 05:47:40;;;;;;;21.17;11.37;;;;;;;;;;5146854;27;20900;-77
2023/12/03 05:50:09;;;;;;;20.13;12.17;;;;;;;;;;5147354;27;20493;-78
2023/12/03 05:52:46;;;;;;;22.07;12.63;;;;;;;;;;5148816;27;20864;-77
2023/12/03 05:55:14;;;;;;;24.50;14.73;;;;;;;;;;5146620;27;20458;-78
2023/12/03 05:57:54;;;;;;;17.50;11.60;;;;;;;;;;5149212;27;20491;-81
2023/12/03 06:00:24;;;;;;;21.07;11.63;;;;;;;;;;5147128;27;20526;-78
2023/12/03 06:02:52;;;;;;;19.30;11.30;;;;;;;;;;5149623;27;20545;-78
2023/12/03 06:05:26;;;;;;;21.10;13.10;;;;;;;;;;5150728;27;20455;-78
2023/12/03 06:07:58;;;;;;;21.40;12.27;;;;;;;;;;5150274;27;20866;-78
2023/12/03 06:10:27;;;;;;;21.07;13.57;;;;;;;;;;5147914;27;20475;-78
2023/12/03 06:12:56;;;;;;;24.47;13.53;;;;;;;;;;5149729;27;20504;-77
2023/12/03 06:15:23;;;;;;;19.77;12.60;;;;;;;;;;5143923;27;20456;-77
2023/12/03 06:17:51;;;;;;;21.87;13.83;;;;;;;;;;5147042;27;20508;-78
2023/12/03 06:20:20;;;;;;;20.03;13.17;;;;;;;;;;5146117;27;20444;-76
2023/12/03 06:22:48;;;;;;;21.60;13.60;;;;;;;;;;5147148;27;20476;-77
2023/12/03 06:25:18;;;;;;;25.30;12.20;;;;;;;;;;5146759;27;20577;-78
2023/12/03 06:27:47;;;;;;;19.10;10.80;;;;;;;;;;5148868;27;20433;-76
2023/12/03 06:30:17;;;;;;;23.10;13.10;;;;;;;;;;5146038;27;20918;-77
2023/12/03 06:32:47;;;;;;;24.10;12.70;;;;;;;;;;5148301;27;20470;-77
2023/12/03 06:35:16;;;;;;;20.07;12.83;;;;;;;;;;5145903;27;20448;-77
2023/12/03 06:37:52;;;;;;;21.83;11.53;;;;;;;;;;5148127;27;20520;-78
2023/12/03 06:40:22;;;;;;;18.73;11.30;;;;;;;;;;5147106;27;20454;-77
2023/12/03 06:42:51;;;;;;;20.47;12.57;;;;;;;;;;5148715;27;20466;-76
2023/12/03 06:45:21;;;;;;;24.53;12.80;;;;;;;;;;5149589;27;20468;-77
2023/12/03 06:47:49;;;;;;;19.00;10.77;;;;;;;;;;5146489;27;20472;-80
2023/12/03 06:50:17;;;;;;;20.90;11.90;;;;;;;;;;5145693;27;20487;-79
2023/12/03 06:52:45;;;;;;;20.80;11.30;;;;;;;;;;5144551;27;20871;-77
2023/12/03 06:55:14;;;;;;;19.00;9.50;;;;;;;;;;5144560;27;20461;-80
2023/12/03 06:57:43;;;;;;;16.60;10.17;;;;;;;;;;5147592;27;20867;-78
2023/12/03 07:00:11;;;;;;;19.07;9.57;;;;;;;;;;5147707;27;20457;-79
2023/12/03 07:02:55;;;;;;;15.90;9.70;;;;;;;;;;5145689;27;20460;-79
2023/12/03 07:05:22;;;;;;;16.23;11.17;;;;;;;;;;5146947;27;20459;-79
2023/12/03 07:07:51;;;;;;;17.13;9.57;;;;;;;;;;5142981;27;20449;-79
2023/12/03 07:10:19;;;;;;;17.03;9.43;;;;;;;;;;5147510;27;20542;-78
2023/12/03 07:12:48;;;;;;;22.53;12.63;;;;;;;;;;5145787;27;20459;-79
2023/12/03 07:15:16;;;;;;;21.83;12.77;;;;;;;;;;5146506;27;20864;-78
2023/12/03 07:17:44;;;;;;;20.30;10.97;;;;;;;;;;5144789;27;20509;-79
2023/12/03 07:20:14;;;;;;;22.93;11.83;;;;;;;;;;5145498;27;20489;-78
2023/12/03 07:22:42;;;;;;;23.20;11.60;;;;;;;;;;5143329;27;20884;-77
2023/12/03 07:25:10;;;;;;;30.00;12.97;;;;;;;;;;5143801;27;20476;-77
2023/12/03 07:27:38;;;;;;;33.60;13.57;;;;;;;;;;5143927;27;20696;-77
2023/12/03 07:30:09;;;;;;;30.97;15.47;;;;;;;;;;5144557;27;20836;-79
2023/12/03 07:32:37;;;;;;;28.23;12.90;;;;;;;;;;5146002;27;20479;-77
2023/12/03 07:35:06;;;;;;;36.00;14.13;;;;;;;;;;5145623;27;20457;-78
2023/12/03 07:37:33;;;;;;;26.23;10.00;;;;;;;;;;5147655;27;20610;-77
2023/12/03 07:40:05;;;;;;;23.07;10.57;;;;;;;;;;5147554;27;20528;-78
2023/12/03 07:42:33;;;;;;;25.53;11.47;;;;;;;;;;5147513;27;20520;-78
2023/12/03 07:45:01;;;;;;;31.77;10.10;;;;;;;;;;5149851;27;20451;-78
2023/12/03 07:47:30;;;;;;;37.17;11.20;;;;;;;;;;5147454;27;20659;-77
2023/12/03 07:49:58;;;;;;;37.90;10.97;;;;;;;;;;5146932;27;20452;-77
2023/12/03 07:52:26;;;;;;;37.00;10.70;;;;;;;;;;5146763;27;20472;-77
2023/12/03 07:54:54;;;;;;;26.27;10.60;;;;;;;;;;5146590;27;20456;-78
2023/12/03 07:57:21;;;;;;;26.57;11.10;;;;;;;;;;5147762;27;20456;-78
2023/12/03 07:59:50;;;;;;;40.50;12.60;;;;;;;;;;5146923;27;20449;-78
2023/12/03 08:02:17;;;;;;;28.13;11.63;;;;;;;;;;5147141;27;20452;-77
2023/12/03 08:04:47;;;;;;;24.03;8.93;;;;;;;;;;5146965;27;20455;-77
2023/12/03 08:07:18;;;;;;;27.57;13.00;;;;;;;;;;5146302;27;20491;-78
2023/12/03 08:09:46;;;;;;;29.63;10.70;;;;;;;;;;5145465;27;20452;-78
2023/12/03 08:12:14;;;;;;;27.93;11.60;;;;;;;;;;5143470;28;20479;-77
2023/12/03 08:14:44;;;;;;;20.40;8.57;;;;;;;;;;5143633;27;20457;-78
2023/12/03 08:17:12;;;;;;;25.27;11.30;;;;;;;;;;5143829;28;20460;-78
2023/12/03 08:19:41;;;;;;;23.58;9.75;;;;;;;;;;5145770;28;20847;-76
2023/12/03 08:22:13;;;;;;;30.20;11.87;;;;;;;;;;5143997;27;20205;-77
2023/12/03 08:24:41;;;;;;;41.07;11.00;;;;;;;;;;5144593;28;20898;-78
2023/12/03 08:27:10;;;;;;;30.33;11.97;;;;;;;;;;5144954;27;20903;-76
2023/12/03 08:29:38;;;;;;;18.27;7.30;;;;;;;;;;5143494;27;20454;-77
2023/12/03 08:32:09;;;;;;;19.27;9.53;;;;;;;;;;5141404;28;20548;-78
2023/12/03 08:34:38;;;;;;;20.37;10.13;;;;;;;;;;5143719;28;20869;-76
2023/12/03 08:37:07;;;;;;;34.57;8.90;;;;;;;;;;5140655;28;20496;-78
2023/12/03 08:39:38;;;;;;;27.08;11.93;;;;;;;;;;5144895;28;20471;-77
2023/12/03 08:42:10;;;;;;;30.73;10.57;;;;;;;;;;5140057;28;20220;-75
2023/12/03 08:44:39;;;;;;;28.93;11.27;;;;;;;;;;5141480;27;20448;-76
2023/12/03 08:47:09;;;;;;;32.50;13.87;;;;;;;;;;5142972;28;20480;-75
2023/12/03 08:49:38;;;;;;;30.67;11.13;;;;;;;;;;5146608;27;20477;-79
2023/12/03 08:52:18;;;;;;;31.53;10.77;;;;;;;;;;5148073;27;20512;-77
2023/12/03 08:54:48;;;;;;;26.83;12.43;;;;;;;;;;5149920;27;20793;-78
2023/12/03 08:57:19;;;;;;;35.37;12.40;;;;;;;;;;5148912;27;20926;-78
2023/12/03 08:59:49;;;;;;;33.77;13.83;;;;;;;;;;5147795;27;20709;-78
2023/12/03 09:02:21;;;;;;;28.97;12.37;;;;;;;;;;5146287;27;20485;-77
2023/12/03 09:04:51;;;;;;;32.47;12.67;;;;;;;;;;5145430;27;20536;-78
2023/12/03 09:07:27;;;;;;;26.77;12.40;;;;;;;;;;5144171;27;20733;-77
2023/12/03 09:09:59;;;;;;;30.20;12.20;;;;;;;;;;5146895;27;20464;-79
2023/12/03 09:12:27;;;;;;;35.70;15.23;;;;;;;;;;5142154;27;21033;-79
2023/12/03 09:15:03;;;;;;;27.80;13.27;;;;;;;;;;5145348;27;20475;-78
2023/12/03 09:17:32;;;;;;;31.60;12.30;;;;;;;;;;5142191;27;20469;-78
2023/12/03 09:19:59;;;;;;;32.03;15.33;;;;;;;;;;5142668;27;20449;-78
2023/12/03 09:22:27;;;;;;;31.60;14.70;;;;;;;;;;5140498;27;20444;-77
2023/12/03 09:24:55;;;;;;;35.30;14.47;;;;;;;;;;5142938;27;20459;-77
2023/12/03 09:27:25;;;;;;;25.67;12.07;;;;;;;;;;5141618;27;20449;-77
2023/12/03 09:29:52;;;;;;;26.07;11.00;;;;;;;;;;5143967;27;20451;-77
2023/12/03 09:32:21;;;;;;;24.23;11.20;;;;;;;;;;5142899;27;20488;-78
2023/12/03 09:34:52;;;;;;;26.80;12.90;;;;;;;;;;5144880;27;20435;-78
2023/12/03 09:37:20;;;;;;;27.50;12.80;;;;;;;;;;5154121;27;20484;-78
2023/12/03 09:39:48;;;;;;;24.23;11.83;;;;;;;;;;5162058;27;20459;-78
2023/12/03 09:42:19;;;;;;;22.00;10.63;;;;;;;;;;5163990;27;20458;-78
2023/12/03 09:44:53;;;;;;;24.00;11.40;;;;;;;;;;5163099;27;20448;-78
2023/12/03 09:47:24;;;;;;;24.07;14.03;;;;;;;;;;5161786;27;20688;-77
2023/12/03 09:49:55;;;;;;;21.87;12.63;;;;;;;;;;5164682;27;20458;-77
2023/12/03 09:52:23;;;;;;;23.93;10.90;;;;;;;;;;5164400;27;20511;-78
2023/12/03 09:54:51;;;;;;;26.10;12.70;;;;;;;;;;5165469;27;20459;-76
2023/12/03 09:57:19;;;;;;;21.83;11.87;;;;;;;;;;5166753;27;20474;-78
2023/12/03 09:59:50;;;;;;;24.90;11.60;;;;;;;;;;5167702;27;20543;-77
2023/12/03 10:02:19;;;;;;;25.47;12.10;;;;;;;;;;5167057;27;20458;-78
2023/12/03 10:04:47;;;;;;;26.37;12.60;;;;;;;;;;5170282;27;20829;-78
2023/12/03 10:07:16;;;;;;;24.67;10.37;;;;;;;;;;5167374;27;20492;-78
2023/12/03 10:09:45;;;;;;;25.03;12.20;;;;;;;;;;5167965;27;20547;-78
2023/12/03 10:12:16;;;;;;;25.90;11.90;;;;;;;;;;5168238;27;20543;-79
2023/12/03 10:14:45;;;;;;;25.07;11.50;;;;;;;;;;5169150;27;20451;-78
2023/12/03 10:17:21;;;;;;;23.57;10.57;;;;;;;;;;5170872;27;20741;-78
2023/12/03 10:19:49;;;;;;;22.03;13.53;;;;;;;;;;5169696;27;20518;-77
2023/12/03 10:22:17;;;;;;;22.57;12.40;;;;;;;;;;5166619;27;20514;-78
2023/12/03 10:24:50;;;;;;;18.50;9.53;;;;;;;;;;5165041;27;20702;-80
2023/12/03 10:27:17;;;;;;;22.70;11.07;;;;;;;;;;5165276;27;20456;-77
2023/12/03 10:29:48;;;;;;;19.43;8.73;;;;;;;;;;5161908;27;20447;-77
2023/12/03 10:32:16;;;;;;;20.60;8.67;;;;;;;;;;5163220;27;20524;-78
2023/12/03 10:34:51;;;;;;;26.37;11.60;;;;;;;;;;5161784;27;20516;-76
2023/12/03 10:37:19;;;;;;;26.90;13.57;;;;;;;;;;5164640;27;20435;-78
2023/12/03 10:39:46;;;;;;;23.53;12.90;;;;;;;;;;5162407;27;20904;-78
2023/12/03 10:42:14;;;;;;;29.47;15.87;;;;;;;;;;5164905;27;20443;-78
2023/12/03 10:44:42;;;;;;;28.87;12.60;;;;;;;;;;5159575;27;21001;-79
2023/12/03 10:47:14;;;;;;;26.10;13.10;;;;;;;;;;5161504;27;20481;-80
2023/12/03 10:49:42;;;;;;;30.30;14.87;;;;;;;;;;5159326;27;20495;-79
2023/12/03 10:52:13;;;;;;;27.43;13.50;;;;;;;;;;5158646;27;20482;-79
2023/12/03 10:54:40;;;;;;;24.27;12.87;;;;;;;;;;5159960;27;20845;-79
2023/12/03 10:57:09;;;;;;;26.60;13.33;;;;;;;;;;5158837;27;20448;-78
2023/12/03 10:59:41;;;;;;;24.83;12.67;;;;;;;;;;5161605;27;20796;-79
2023/12/03 11:02:11;;;;;;;22.90;11.23;;;;;;;;;;5163060;27;20463;-78
2023/12/03 11:04:41;;;;;;;27.80;13.33;;;;;;;;;;5162054;27;20476;-78
2023/12/03 11:07:09;;;;;;;24.57;13.10;;;;;;;;;;5156231;27;20565;-78
2023/12/03 11:09:40;;;;;;;31.87;13.10;;;;;;;;;;5158793;27;20479;-78
2023/12/03 11:12:09;;;;;;;26.87;13.90;;;;;;;;;;5155494;27;20492;-77
2023/12/03 11:14:38;;;;;;;26.53;13.57;;;;;;;;;;5155973;27;20530;-79
2023/12/03 11:17:11;;;;;;;22.67;12.50;;;;;;;;;;5156278;27;20440;-79
2023/12/03 11:19:39;;;;;;;26.27;12.47;;;;;;;;;;5163001;27;20450;-79
2023/12/03 11:22:13;;;;;;;25.57;12.13;;;;;;;;;;5157877;27;20516;-78
2023/12/03 11:24:52;;;;;;;23.90;11.77;;;;;;;;;;5161337;27;20663;-78
2023/12/03 11:27:26;;;;;;;25.87;12.57;;;;;;;;;;5162564;27;20458;-78
2023/12/03 11:29:55;;;;;;;23.77;12.37;;;;;;;;;;5161145;27;20454;-79
2023/12/03 11:32:32;;;;;;;33.60;13.73;;;;;;;;;;5159002;27;20925;-79
2023/12/03 11:35:02;;;;;;;24.80;11.27;;;;;;;;;;5159285;27;20456;-78
2023/12/03 11:37:30;;;;;;;26.43;14.83;;;;;;;;;;5157039;27;20461;-77
2023/12/03 11:40:07;;;;;;;23.60;13.10;;;;;;;;;;5159897;27;21161;-78
2023/12/03 11:42:35;;;;;;;31.33;15.70;;;;;;;;;;5154534;27;20446;-76
2023/12/03 11:45:18;;;;;;;28.27;13.50;;;;;;;;;;5157821;27;20443;-79
2023/12/03 11:47:46;;;;;;;24.20;12.73;;;;;;;;;;5158919;27;20486;-78
2023/12/03 11:50:16;;;;;;;33.47;14.20;;;;;;;;;;5148772;27;20519;-78
2023/12/03 11:52:45;;;;;;;26.00;13.40;;;;;;;;;;5136917;27;20557;-78
2023/12/03 11:55:17;;;;;;;23.83;12.67;;;;;;;;;;5137830;27;20486;-76
2023/12/03 11:57:48;;;;;;;27.67;14.23;;;;;;;;;;5138218;27;20448;-78
2023/12/03 12:00:19;;;;;;;34.33;15.30;;;;;;;;;;5139578;27;20444;-78
2023/12/03 12:02:47;;;;;;;25.33;12.80;;;;;;;;;;5138449;27;20445;-77
2023/12/03 12:05:15;;;;;;;26.70;12.60;;;;;;;;;;5137375;27;20447;-77
2023/12/03 12:07:57;;;;;;;29.87;13.70;;;;;;;;;;5138318;27;20540;-77
2023/12/03 12:10:26;;;;;;;30.00;13.90;;;;;;;;;;5140053;27;20456;-77
2023/12/03 12:12:54;;;;;;;25.23;11.97;;;;;;;;;;5135239;28;20481;-77
2023/12/03 12:15:22;;;;;;;29.67;15.00;;;;;;;;;;5117044;28;20541;-78
2023/12/03 12:17:50;;;;;;;25.57;12.87;;;;;;;;;;5119505;28;20454;-77
2023/12/03 12:20:26;;;;;;;26.17;16.30;;;;;;;;;;5122273;28;20567;-78
2023/12/03 12:22:54;;;;;;;27.47;14.50;;;;;;;;;;5123453;28;20455;-77
2023/12/03 12:25:23;;;;;;;30.33;14.93;;;;;;;;;;5127409;28;20511;-77
2023/12/03 12:27:56;;;;;;;30.40;14.10;;;;;;;;;;5123875;28;20451;-77
2023/12/03 12:30:31;;;;;;;22.63;13.40;;;;;;;;;;5143153;27;20527;-77
2023/12/03 12:33:01;;;;;;;22.20;13.13;;;;;;;;;;5145064;27;20476;-77
2023/12/03 12:35:28;;;;;;;26.77;12.93;;;;;;;;;;5145506;27;20453;-76
2023/12/03 12:38:03;;;;;;;26.43;13.47;;;;;;;;;;5143922;27;20455;-78
2023/12/03 12:40:32;;;;;;;23.37;13.87;;;;;;;;;;5146316;27;20448;-77
2023/12/03 12:43:08;;;;;;;28.47;14.43;;;;;;;;;;5144295;27;20453;-77
2023/12/03 12:45:41;;;;;;;26.57;14.50;;;;;;;;;;5146027;27;20594;-77
2023/12/03 12:48:29;;;;;;;24.57;13.00;;;;;;;;;;5145461;27;21041;-77
2023/12/03 12:50:57;;;;;;;24.83;12.63;;;;;;;;;;5142842;27;20464;-77
2023/12/03 12:53:27;;;;;;;21.70;12.47;;;;;;;;;;5124040;28;20480;-76
2023/12/03 12:55:55;;;;;;;33.30;13.83;;;;;;;;;;5123475;28;21004;-75
2023/12/03 12:58:27;;;;;;;29.10;14.17;;;;;;;;;;5122628;28;20461;-78
2023/12/03 13:00:56;;;;;;;25.67;15.20;;;;;;;;;;5124958;28;20475;-79
2023/12/03 13:03:27;;;;;;;25.60;15.20;;;;;;;;;;5121270;28;20477;-78
2023/12/03 13:05:55;;;;;;;25.37;13.80;;;;;;;;;;5118089;28;20477;-78
2023/12/03 13:08:29;;;;;;;36.47;17.23;;;;;;;;;;5117638;28;20446;-77
2023/12/03 13:10:59;;;;;;;28.83;14.80;;;;;;;;;;5120036;28;20740;-77
2023/12/03 13:13:30;;;;;;;34.63;15.80;;;;;;;;;;5141991;27;20495;-77
2023/12/03 13:15:58;;;;;;;23.80;11.80;;;;;;;;;;5139862;27;20472;-77
2023/12/03 13:18:28;;;;;;;26.73;12.87;;;;;;;;;;5142146;27;20449;-78
2023/12/03 13:20:56;;;;;;;32.33;17.07;;;;;;;;;;5143850;27;20483;-77
2023/12/03 13:23:25;;;;;;;29.00;14.90;;;;;;;;;;5141690;27;20603;-77
2023/12/03 13:25:53;;;;;;;26.13;14.30;;;;;;;;;;5143596;27;20478;-80
2023/12/03 13:28:21;;;;;;;26.43;13.40;;;;;;;;;;5142639;27;20476;-78
2023/12/03 13:30:50;;;;;;;31.60;15.37;;;;;;;;;;5143079;27;20446;-78
2023/12/03 13:33:18;;;;;;;27.00;14.77;;;;;;;;;;5141053;27;20490;-77
2023/12/03 13:35:46;;;;;;;31.50;16.17;;;;;;;;;;5137266;27;20448;-78
2023/12/03 13:38:16;;;;;;;28.47;16.67;;;;;;;;;;5141721;27;20468;-77
2023/12/03 13:40:44;;;;;;;23.87;14.07;;;;;;;;;;5140064;27;20452;-77
2023/12/03 13:43:12;;;;;;;34.43;17.60;;;;;;;;;;5139888;27;20583;-77
2023/12/03 13:45:41;;;;;;;32.77;17.70;;;;;;;;;;5135317;27;20578;-76
2023/12/03 13:48:12;;;;;;;29.37;16.70;;;;;;;;;;5134359;27;20453;-77
2023/12/03 13:50:41;;;;;;;31.30;16.73;;;;;;;;;;5137375;27;20475;-78
2023/12/03 13:53:09;;;;;;;29.43;13.83;;;;;;;;;;5136361;27;20536;-77
2023/12/03 13:55:37;;;;;;;26.33;14.63;;;;;;;;;;5140331;27;20568;-78
2023/12/03 13:58:05;;;;;;;30.67;15.70;;;;;;;;;;5134830;27;20465;-79
2023/12/03 14:00:32;;;;;;;33.00;15.80;;;;;;;;;;5140862;27;20539;-78
2023/12/03 14:03:01;;;;;;;41.50;19.70;;;;;;;;;;5139810;27;20444;-78
2023/12/03 14:05:30;;;;;;;29.80;15.67;;;;;;;;;;5141979;27;20449;-77
2023/12/03 14:07:58;;;;;;;28.47;15.40;;;;;;;;;;5142307;27;20449;-79
2023/12/03 14:10:29;;;;;;;31.30;16.00;;;;;;;;;;5138468;27;20456;-77
2023/12/03 14:12:56;;;;;;;32.33;15.30;;;;;;;;;;5143048;27;20504;-79
2023/12/03 14:15:24;;;;;;;34.30;16.70;;;;;;;;;;5136404;27;20467;-78
2023/12/03 14:17:52;;;;;;;33.60;16.77;;;;;;;;;;5135522;27;20480;-79
2023/12/03 14:20:20;;;;;;;30.53;15.70;;;;;;;;;;5131289;27;20455;-76
2023/12/03 14:22:51;;;;;;;30.13;16.87;;;;;;;;;;5140124;27;20562;-78
2023/12/03 14:25:19;;;;;;;73.67;42.47;;;;;;;;;;5140758;27;20452;-76
2023/12/03 14:27:48;;;;;;;29.00;15.57;;;;;;;;;;5142766;27;20526;-76
2023/12/03 14:30:22;;;;;;;31.00;16.03;;;;;;;;;;5139941;27;20454;-77